Valley Grande, Alabama
Current Conditions -  °F | °C
As of 5:15 PM on Tuesday 27 Jan 2015 (Local Time) from K1A9 Reporting Station
Clear Clear  
Wind Chill: 55°   Ceiling: Unl
Heat Index: 55°   Visibility: 10mi
Dew Point: 32°   Wind: 5mph
Humidity: 41%   Direction: 330°NNW
Pressure: 30.04"   Gusts: NA
Location:  32.4554°N, 86.9821°W
Report Text: K1A9 272315Z AUTO 33004KT 10SM CLR 13/00 A3004 RMK AO2 T01300000
Loading
Personal Weather Stations






























Interactive Weather Map New forecast layout! Learn more

10-Day Weather Forecast

Advertisements
Track Severe Weather on mobile